METAR AND TAF INFORMATION
METAR FOR LTAJ
ADDS - METARS form results

(0935 UTC 21 January 2019)
Data provider http://aviationweather.gov/metar/data/
 
METAR text: LTAJ 210920Z 03008KT 9999 FEW040 BKN100 04/M02 Q1022 NOSIG RMK RWY10 05010KT
Conditions at: LTAJ (GAZIANTEP , TR) observed 0920 UTC 21 January 2019
Temperature: 4.0°C (39°F)
Dewpoint: -2.0°C (28°F) [RH = 65%]
Pressure (altimeter): 30.18 inches Hg (1022.0 mb)
Winds: from the NNE (30 degrees) at 9 MPH (8 knots; 4.1 m/s)
Visibility: 6 or more miles (10+ km)
Ceiling: 10000 feet AGL
Clouds: few clouds at 4000 feet AGL
broken clouds at 10000 feet AGL
Weather: no significant weather observed at this time

METAR text: LTAJ 210850Z 04009KT 9999 FEW040 BKN100 04/M02 Q1023 NOSIG RMK RWY10 03010KT
Conditions at: LTAJ (GAZIANTEP , TR) observed 0850 UTC 21 January 2019
Temperature: 4.0°C (39°F)
Dewpoint: -2.0°C (28°F) [RH = 65%]
Pressure (altimeter): 30.21 inches Hg (1023.0 mb)
Winds: from the NE (40 degrees) at 10 MPH (9 knots; 4.6 m/s)
Visibility: 6 or more miles (10+ km)
Ceiling: 10000 feet AGL
Clouds: few clouds at 4000 feet AGL
broken clouds at 10000 feet AGL
Weather: no significant weather observed at this time

Forecast for: LTAJ (GAZIANTEP , TR)
Text: TAF LTAJ 210440Z 2106/2206 03007KT 9999 FEW040 BKN080
Forecast period: 0600 to 1500 UTC 21 January 2019
Forecast type: FROM: standard forecast or significant change
Winds: from the NNE (30 degrees) at 8 MPH (7 knots; 3.6 m/s)
Visibility: 6 or more miles 10+ km)
Ceiling: 8000 feet AGL
Clouds: few clouds at 4000 feet AGL
broken clouds at 8000 feet AGL
Weather: no significant weather forecast for this period
Text: BECMG 2115/2118 CAVOK
Forecast period: 1500 UTC 21 January 2019 to 0600 UTC 22 January 2019
Forecast type: BECOMING: Conditions expected to become as follows by 1800 UTC 21 January 2019
Winds: from the NNE (30 degrees) at 8 MPH (7 knots; 3.6 m/s)
Visibility: 6 or more miles 10+ km)
Ceiling: unknown
Clouds: missing
Weather: NSW  (no significant weather)

 AIRPORT MAP

 RUNWAY INFORMATION
Runway 10L Runway length 9843 ft Runway width 157 ft
Runway elevation 2315 ft Runway displaced threshold 427 ft Runway heading 105
Runway 28R Runway length 9843 ft Runway width 157 ft
Runway elevation 2190 ft Runway displaced threshold 0 ft Runway heading 285
Runway 10R Runway length 9842 ft Runway width 100 ft
Runway elevation 2309 ft Runway displaced threshold 328 ft Runway heading 105
Runway 28L Runway length 9842 ft Runway width 100 ft
Runway elevation 2215 ft Runway displaced threshold 0 ft Runway heading 285

 AIRPORT FREQUENCIES
Type APP Name APP Frequency 120.1 MHZ
Type ATIS Name Frequency 119.275 MHZ
Type TWR Name TWR Frequency 120.1 MHZ

 AIRPORT NEAR NAVIGATION AIDS
Type VOR-DME Name Gaziantep Frequency 116700 KHZ
Type NDB Name Oguzeli Frequency 432 KHZ



Copyright © 2007-2018 Istanbul Virtual Airlines.All rights reserved.Developed by Arca Erdik and Aykut Alp Kurt.